createdAt,value
2023-01-07T00:01:17.050Z,101338.00
2023-01-07T00:03:46.671Z,101341.00
2023-01-07T00:06:21.089Z,101338.00
2023-01-07T00:08:50.951Z,101341.00
2023-01-07T00:11:22.435Z,101338.00
2023-01-07T00:13:52.428Z,101333.00
2023-01-07T00:16:27.047Z,101318.00
2023-01-07T00:19:00.680Z,101315.00
2023-01-07T00:21:30.512Z,101327.00
2023-01-07T00:24:04.088Z,101328.00
2023-01-07T00:26:37.312Z,101326.00
2023-01-07T00:29:06.380Z,101318.00
2023-01-07T00:31:40.211Z,101311.00
2023-01-07T00:34:09.296Z,101318.00
2023-01-07T00:36:44.607Z,101312.00
2023-01-07T00:39:21.183Z,101318.00
2023-01-07T00:42:07.894Z,101305.00
2023-01-07T00:44:38.060Z,101310.00
2023-01-07T00:47:08.212Z,101304.00
2023-01-07T00:49:35.582Z,101305.00
2023-01-07T00:52:02.876Z,101298.00
2023-01-07T00:54:30.231Z,101293.00
2023-01-07T00:56:57.505Z,101296.00
2023-01-07T00:59:25.002Z,101288.00
2023-01-07T01:01:52.374Z,101283.00
2023-01-07T01:04:19.738Z,101287.00
2023-01-07T01:06:47.079Z,101286.00
2023-01-07T01:09:14.472Z,101292.00
2023-01-07T01:11:42.385Z,101286.00
2023-01-07T01:14:14.402Z,101285.00
2023-01-07T01:16:42.305Z,101286.00
2023-01-07T01:19:09.596Z,101282.00
2023-01-07T01:21:36.842Z,101286.00
2023-01-07T01:24:04.368Z,101282.00
2023-01-07T01:26:31.674Z,101266.00
2023-01-07T01:28:59.003Z,101272.00
2023-01-07T01:31:26.781Z,101273.00
2023-01-07T01:33:58.340Z,101271.00
2023-01-07T01:36:26.493Z,101272.00
2023-01-07T01:38:54.326Z,101263.00
2023-01-07T01:41:21.740Z,101270.00
2023-01-07T01:43:49.238Z,101259.00
2023-01-07T01:46:43.658Z,101263.00
2023-01-07T01:49:24.254Z,101264.00
2023-01-07T01:52:26.348Z,101271.00
2023-01-07T01:55:00.438Z,101264.00
2023-01-07T01:57:32.980Z,101266.00
2023-01-07T02:00:00.829Z,101264.00
2023-01-07T02:02:44.829Z,101257.00
2023-01-07T02:05:12.282Z,101257.00
2023-01-07T02:07:39.910Z,101252.00
2023-01-07T02:10:19.495Z,101249.00
2023-01-07T02:14:07.102Z,101254.00
2023-01-07T02:16:59.305Z,101252.00
2023-01-07T02:20:36.508Z,101247.00
2023-01-07T02:23:50.483Z,101255.00
2023-01-07T02:26:42.214Z,101256.00
2023-01-07T02:29:49.220Z,101241.00
2023-01-07T02:32:34.808Z,101235.00
2023-01-07T02:35:19.845Z,101248.00
2023-01-07T02:38:26.611Z,101253.00
2023-01-07T02:41:45.094Z,101247.00
2023-01-07T02:44:42.293Z,101236.00
2023-01-07T02:47:49.859Z,101233.00
2023-01-07T02:50:17.061Z,101238.00
2023-01-07T02:52:44.406Z,101226.00
2023-01-07T02:55:22.753Z,101225.00
2023-01-07T02:58:31.851Z,101224.00
2023-01-07T03:01:47.192Z,101230.00
2023-01-07T03:04:50.832Z,101223.00
2023-01-07T03:07:41.826Z,101218.00
2023-01-07T03:10:34.926Z,101222.00
2023-01-07T03:13:16.926Z,101217.00
2023-01-07T03:16:08.967Z,101217.00
2023-01-07T03:19:28.338Z,101217.00
2023-01-07T03:22:00.065Z,101210.00
2023-01-07T03:24:28.905Z,101205.00
2023-01-07T03:26:59.293Z,101198.00
2023-01-07T03:29:26.683Z,101207.00
2023-01-07T03:32:04.974Z,101207.00
2023-01-07T03:34:34.877Z,101191.00
2023-01-07T03:37:10.577Z,101195.00
2023-01-07T03:39:40.992Z,101194.00
2023-01-07T03:42:30.516Z,101200.00
2023-01-07T03:44:58.848Z,101196.00
2023-01-07T03:47:28.860Z,101198.00
2023-01-07T03:49:56.114Z,101193.00
2023-01-07T03:52:23.258Z,101197.00
2023-01-07T03:54:50.575Z,101191.00
2023-01-07T03:57:17.920Z,101185.00
2023-01-07T03:59:45.224Z,101196.00
2023-01-07T04:02:12.623Z,101186.00
2023-01-07T04:04:40.150Z,101186.00
2023-01-07T04:07:07.437Z,101183.00
2023-01-07T04:09:34.803Z,101175.00
2023-01-07T04:12:02.101Z,101172.00
2023-01-07T04:14:29.415Z,101178.00
2023-01-07T04:16:56.712Z,101164.00
2023-01-07T04:19:24.272Z,101165.00
2023-01-07T04:21:51.625Z,101169.00
2023-01-07T04:24:18.905Z,101171.00
2023-01-07T04:26:46.205Z,101159.00
2023-01-07T04:29:13.692Z,101157.00
2023-01-07T04:31:40.927Z,101160.00
2023-01-07T04:34:08.191Z,101157.00
2023-01-07T04:36:35.557Z,101148.00
2023-01-07T04:39:03.327Z,101147.00
2023-01-07T04:41:30.670Z,101138.00
2023-01-07T04:43:59.464Z,101134.00
2023-01-07T04:46:26.941Z,101133.00
2023-01-07T04:48:54.138Z,101123.00
2023-01-07T04:51:21.559Z,101133.00
2023-01-07T04:53:49.024Z,101116.00
2023-01-07T04:56:16.331Z,101126.00
2023-01-07T04:58:44.058Z,101127.00
2023-01-07T05:01:12.794Z,101123.00
2023-01-07T05:03:40.505Z,101095.00
2023-01-07T05:06:09.597Z,101100.00
2023-01-07T05:08:36.825Z,101093.00
2023-01-07T05:11:05.270Z,101095.00
2023-01-07T05:13:35.380Z,101087.00
2023-01-07T05:16:04.042Z,101093.00
2023-01-07T05:18:31.467Z,101080.00
2023-01-07T05:20:58.798Z,101085.00
2023-01-07T05:23:26.188Z,101082.00
2023-01-07T05:25:53.571Z,101071.00
2023-01-07T05:28:21.136Z,101082.00
2023-01-07T05:30:48.717Z,101082.00
2023-01-07T05:33:16.128Z,101071.00
2023-01-07T05:35:43.403Z,101084.00
2023-01-07T05:38:10.844Z,101078.00
2023-01-07T05:40:38.139Z,101067.00
2023-01-07T05:43:05.425Z,101081.00
2023-01-07T05:45:32.730Z,101073.00
2023-01-07T05:48:00.056Z,101069.00
2023-01-07T05:50:27.528Z,101070.00
2023-01-07T05:52:54.975Z,101075.00
2023-01-07T05:55:22.449Z,101064.00
2023-01-07T05:57:49.681Z,101067.00
2023-01-07T06:00:17.260Z,101063.00
2023-01-07T06:02:44.964Z,101071.00
2023-01-07T06:05:12.379Z,101065.00
2023-01-07T06:07:39.836Z,101061.00
2023-01-07T06:10:07.909Z,101067.00
2023-01-07T06:12:35.350Z,101060.00
2023-01-07T06:15:02.767Z,101061.00
2023-01-07T06:17:30.209Z,101050.00
2023-01-07T06:19:57.451Z,101058.00
2023-01-07T06:22:24.835Z,101064.00
2023-01-07T06:24:52.122Z,101049.00
2023-01-07T06:27:38.434Z,101055.00
2023-01-07T06:30:07.159Z,101038.00
2023-01-07T06:32:39.738Z,101040.00
2023-01-07T06:35:09.656Z,101041.00
2023-01-07T06:37:37.193Z,101044.00
2023-01-07T06:40:05.219Z,101029.00
2023-01-07T06:42:32.567Z,101042.00
2023-01-07T06:44:59.924Z,101044.00
2023-01-07T06:47:27.257Z,101026.00
2023-01-07T06:49:54.458Z,101039.00
2023-01-07T06:52:21.756Z,101023.00
2023-01-07T06:54:49.049Z,101007.00
2023-01-07T06:57:16.378Z,101022.00
2023-01-07T06:59:43.787Z,101008.00
2023-01-07T07:02:24.261Z,101015.00
2023-01-07T07:04:55.192Z,101013.00
2023-01-07T07:07:22.995Z,100994.00
2023-01-07T07:09:53.037Z,101004.00
2023-01-07T07:12:20.384Z,100992.00
2023-01-07T07:14:47.894Z,100996.00
2023-01-07T07:17:15.185Z,100993.00
2023-01-07T07:19:42.495Z,100990.00
2023-01-07T07:22:10.096Z,100981.00
2023-01-07T07:24:37.271Z,100990.00
2023-01-07T07:27:04.799Z,100986.00
2023-01-07T07:29:35.128Z,100975.00
2023-01-07T07:32:03.503Z,100980.00
2023-01-07T07:34:30.774Z,100986.00
2023-01-07T07:36:58.038Z,100979.00
2023-01-07T07:39:25.474Z,100986.00
2023-01-07T07:41:53.401Z,100984.00
2023-01-07T07:44:20.913Z,100986.00
2023-01-07T07:46:48.282Z,100979.00
2023-01-07T07:49:15.666Z,100977.00
2023-01-07T07:51:42.962Z,100976.00
2023-01-07T07:54:10.212Z,100977.00
2023-01-07T07:56:37.497Z,100987.00
2023-01-07T07:59:04.781Z,100982.00
2023-01-07T08:01:32.164Z,100974.00
2023-01-07T08:03:59.542Z,100979.00
2023-01-07T08:06:26.796Z,100971.00
2023-01-07T08:08:54.095Z,100969.00
2023-01-07T08:11:21.794Z,100960.00
2023-01-07T08:13:49.189Z,100971.00
2023-01-07T08:16:19.448Z,100958.00
2023-01-07T08:18:47.128Z,100959.00
2023-01-07T08:21:14.937Z,100955.00
2023-01-07T08:23:42.421Z,100958.00
2023-01-07T08:26:09.709Z,100956.00
2023-01-07T08:28:38.749Z,100958.00
2023-01-07T08:31:08.459Z,100964.00
2023-01-07T08:33:38.742Z,100959.00
2023-01-07T08:36:21.557Z,100952.00
2023-01-07T08:38:56.408Z,100963.00
2023-01-07T08:41:27.485Z,100958.00
2023-01-07T08:43:57.281Z,100939.00
2023-01-07T08:46:24.606Z,100945.00
2023-01-07T08:48:51.907Z,100941.00
2023-01-07T08:51:19.290Z,100938.00
2023-01-07T08:53:47.824Z,100934.00
2023-01-07T08:56:15.288Z,100939.00
2023-01-07T08:58:42.637Z,100929.00
2023-01-07T09:01:10.991Z,100920.00
2023-01-07T09:03:39.101Z,100928.00
2023-01-07T09:06:07.665Z,100928.00
2023-01-07T09:12:34.677Z,100930.00
2023-01-07T09:15:02.114Z,100921.00
2023-01-07T09:17:29.430Z,100936.00
2023-01-07T09:19:56.617Z,100928.00
2023-01-07T09:22:23.992Z,100917.00
2023-01-07T09:24:51.419Z,100914.00
2023-01-07T09:27:18.721Z,100909.00
2023-01-07T09:29:46.056Z,100904.00
2023-01-07T09:32:13.223Z,100902.00
2023-01-07T09:34:40.400Z,100903.00
2023-01-07T09:37:07.706Z,100901.00
2023-01-07T09:39:35.143Z,100891.00
2023-01-07T09:42:34.087Z,100902.00
2023-01-07T09:45:36.605Z,100909.00
2023-01-07T09:49:19.830Z,100906.00
2023-01-07T09:51:57.151Z,100901.00
2023-01-07T09:54:35.799Z,100900.00
2023-01-07T09:57:04.689Z,100894.00
2023-01-07T09:59:32.642Z,100889.00
2023-01-07T10:02:42.412Z,100888.00
2023-01-07T10:05:31.738Z,100875.00
2023-01-07T10:08:30.785Z,100874.00
2023-01-07T10:11:34.958Z,100869.00
2023-01-07T10:14:29.610Z,100862.00
2023-01-07T10:17:21.997Z,100861.00
2023-01-07T10:19:58.570Z,100850.00
2023-01-07T10:22:38.754Z,100848.00
2023-01-07T10:25:25.647Z,100834.00
2023-01-07T10:27:58.890Z,100844.00
2023-01-07T10:30:31.178Z,100830.00
2023-01-07T10:33:29.836Z,100818.00
2023-01-07T10:36:35.374Z,100814.00
2023-01-07T10:39:27.600Z,100805.00
2023-01-07T10:42:35.054Z,100805.00
2023-01-07T10:45:36.167Z,100789.00
2023-01-07T10:48:37.591Z,100791.00
2023-01-07T10:51:55.751Z,100788.00
2023-01-07T10:54:47.191Z,100766.00
2023-01-07T10:57:21.771Z,100762.00
2023-01-07T10:59:53.903Z,100763.00
2023-01-07T11:02:27.692Z,100754.00
2023-01-07T11:04:59.444Z,100742.00
2023-01-07T11:07:43.711Z,100741.00
2023-01-07T11:10:24.460Z,100742.00
2023-01-07T11:13:30.222Z,100731.00
2023-01-07T11:16:21.652Z,100728.00
2023-01-07T11:19:07.257Z,100728.00
2023-01-07T11:21:43.225Z,100720.00
2023-01-07T11:24:34.970Z,100713.00
2023-01-07T11:27:15.210Z,100704.00
2023-01-07T11:30:22.241Z,100704.00
2023-01-07T11:33:24.638Z,100697.00
2023-01-07T11:36:12.215Z,100693.00
2023-01-07T11:38:40.054Z,100698.00
2023-01-07T11:41:23.072Z,100682.00
2023-01-07T11:43:53.601Z,100669.00
2023-01-07T11:46:26.904Z,100669.00
2023-01-07T11:49:01.502Z,100665.00
2023-01-07T11:51:42.109Z,100663.00
2023-01-07T11:54:26.588Z,100655.00
2023-01-07T11:57:10.281Z,100649.00
2023-01-07T11:59:37.597Z,100659.00
2023-01-07T12:02:26.237Z,100644.00
2023-01-07T12:05:20.015Z,100633.00
2023-01-07T12:07:50.459Z,100636.00
2023-01-07T12:10:39.668Z,100635.00
2023-01-07T12:13:23.691Z,100634.00
2023-01-07T12:16:02.349Z,100614.00
2023-01-07T12:19:12.683Z,100607.00
2023-01-07T12:22:04.363Z,100617.00
2023-01-07T12:25:03.599Z,100612.00
2023-01-07T12:27:50.933Z,100610.00
2023-01-07T12:30:55.549Z,100599.00
2023-01-07T12:34:20.971Z,100597.00
2023-01-07T12:37:05.330Z,100590.00
2023-01-07T12:39:41.353Z,100587.00
2023-01-07T12:42:32.035Z,100574.00
2023-01-07T12:45:07.153Z,100573.00
2023-01-07T12:47:40.367Z,100569.00
2023-01-07T12:50:28.155Z,100567.00
2023-01-07T12:53:33.212Z,100559.00
2023-01-07T12:56:33.342Z,100551.00
2023-01-07T12:59:46.875Z,100556.00
2023-01-07T13:02:38.416Z,100549.00
2023-01-07T13:05:16.128Z,100548.00
2023-01-07T13:07:47.755Z,100531.00
2023-01-07T13:10:31.041Z,100532.00
2023-01-07T13:13:07.109Z,100529.00
2023-01-07T13:15:40.121Z,100534.00
2023-01-07T13:18:19.957Z,100528.00
2023-01-07T13:21:09.151Z,100511.00
2023-01-07T13:24:01.231Z,100509.00
2023-01-07T13:26:37.380Z,100509.00
2023-01-07T13:29:27.125Z,100491.00
2023-01-07T13:32:57.521Z,100495.00
2023-01-07T13:36:35.381Z,100500.00
2023-01-07T13:39:04.689Z,100497.00
2023-01-07T13:41:53.400Z,100500.00
2023-01-07T13:45:04.892Z,100497.00
2023-01-07T13:47:58.463Z,100485.00
2023-01-07T13:51:05.844Z,100482.00
2023-01-07T13:53:59.245Z,100462.00
2023-01-07T13:56:26.602Z,100474.00
2023-01-07T13:59:03.901Z,100477.00
2023-01-07T14:02:12.789Z,100461.00
2023-01-07T14:04:51.864Z,100465.00
2023-01-07T14:10:06.265Z,100460.00
2023-01-07T14:13:35.022Z,100465.00
2023-01-07T14:16:27.826Z,100461.00
2023-01-07T14:19:21.180Z,100447.00
2023-01-07T14:22:06.169Z,100450.00
2023-01-07T14:24:49.453Z,100450.00
2023-01-07T14:27:53.225Z,100447.00
2023-01-07T14:30:31.581Z,100424.00
2023-01-07T14:33:04.580Z,100427.00
2023-01-07T14:35:40.655Z,100430.00
2023-01-07T14:38:42.871Z,100430.00
2023-01-07T14:41:13.410Z,100426.00
2023-01-07T14:43:43.777Z,100437.00
2023-01-07T14:46:33.654Z,100421.00
2023-01-07T14:49:01.940Z,100433.00
2023-01-07T14:51:38.099Z,100428.00
2023-01-07T14:54:33.176Z,100421.00
2023-01-07T14:57:22.407Z,100426.00
2023-01-07T15:00:22.861Z,100428.00
2023-01-07T15:03:22.398Z,100421.00
2023-01-07T15:06:26.716Z,100419.00
2023-01-07T15:09:46.192Z,100412.00
2023-01-07T15:12:44.958Z,100408.00
2023-01-07T15:15:43.312Z,100401.00
2023-01-07T15:18:12.387Z,100406.00
2023-01-07T15:20:48.689Z,100391.00
2023-01-07T15:23:49.434Z,100388.00
2023-01-07T15:26:43.219Z,100380.00
2023-01-07T15:29:22.183Z,100378.00
2023-01-07T15:32:26.138Z,100383.00
2023-01-07T15:34:53.835Z,100383.00
2023-01-07T15:37:21.543Z,100367.00
2023-01-07T15:39:55.795Z,100370.00
2023-01-07T15:42:27.404Z,100374.00
2023-01-07T15:45:00.658Z,100373.00
2023-01-07T15:47:41.853Z,100362.00
2023-01-07T15:50:30.602Z,100373.00
2023-01-07T15:53:06.436Z,100359.00
2023-01-07T15:55:37.932Z,100360.00
2023-01-07T15:58:13.366Z,100358.00
2023-01-07T16:00:41.872Z,100334.00
2023-01-07T16:03:17.719Z,100342.00
2023-01-07T16:05:45.249Z,100345.00
2023-01-07T16:08:29.834Z,100353.00
2023-01-07T16:11:26.247Z,100330.00
2023-01-07T16:14:00.484Z,100326.00
2023-01-07T16:16:30.319Z,100341.00
2023-01-07T16:19:00.578Z,100344.00
2023-01-07T16:21:57.739Z,100334.00
2023-01-07T16:24:25.484Z,100335.00
2023-01-07T16:27:06.433Z,100334.00
2023-01-07T16:29:52.833Z,100320.00
2023-01-07T16:32:24.182Z,100331.00
2023-01-07T16:35:05.339Z,100326.00
2023-01-07T16:37:35.147Z,100330.00
2023-01-07T16:40:05.224Z,100331.00
2023-01-07T16:42:32.617Z,100338.00
2023-01-07T16:45:02.478Z,100316.00
2023-01-07T16:47:33.611Z,100317.00
2023-01-07T16:50:17.152Z,100320.00
2023-01-07T16:52:56.998Z,100323.00
2023-01-07T16:55:48.013Z,100324.00
2023-01-07T16:58:43.617Z,100316.00
2023-01-07T17:01:12.810Z,100307.00
2023-01-07T17:04:02.298Z,100314.00
2023-01-07T17:06:38.964Z,100334.00
2023-01-07T17:09:34.150Z,100323.00
2023-01-07T17:12:01.994Z,100313.00
2023-01-07T17:14:35.851Z,100319.00
2023-01-07T17:17:18.320Z,100304.00
2023-01-07T17:19:54.951Z,100308.00
2023-01-07T17:22:38.465Z,100300.00
2023-01-07T17:25:28.358Z,100314.00
2023-01-07T17:28:07.012Z,100292.00
2023-01-07T17:30:37.015Z,100298.00
2023-01-07T17:33:04.732Z,100292.00
2023-01-07T17:35:32.207Z,100290.00
2023-01-07T17:37:59.660Z,100287.00
2023-01-07T17:40:27.156Z,100279.00
2023-01-07T17:43:17.128Z,100272.00
2023-01-07T17:45:44.304Z,100285.00
2023-01-07T17:48:15.653Z,100274.00
2023-01-07T17:50:43.649Z,100270.00
2023-01-07T17:53:58.960Z,100269.00
2023-01-07T17:56:26.362Z,100253.00
2023-01-07T17:58:55.947Z,100248.00
2023-01-07T18:01:25.884Z,100252.00
2023-01-07T18:03:54.881Z,100259.00
2023-01-07T18:06:25.316Z,100258.00
2023-01-07T18:08:53.488Z,100252.00
2023-01-07T18:11:46.649Z,100256.00
2023-01-07T18:14:15.323Z,100249.00
2023-01-07T18:16:43.250Z,100240.00
2023-01-07T18:19:17.636Z,100242.00
2023-01-07T18:21:45.273Z,100239.00
2023-01-07T18:24:21.032Z,100236.00
2023-01-07T18:26:49.156Z,100261.00
2023-01-07T18:29:16.580Z,100253.00
2023-01-07T18:31:45.383Z,100256.00
2023-01-07T18:34:15.272Z,100261.00
2023-01-07T18:36:42.612Z,100244.00
2023-01-07T18:39:19.116Z,100249.00
2023-01-07T18:41:49.585Z,100238.00
2023-01-07T18:44:21.777Z,100229.00
2023-01-07T18:46:49.106Z,100237.00
2023-01-07T18:49:16.532Z,100240.00
2023-01-07T18:51:46.823Z,100241.00
2023-01-07T18:54:14.967Z,100235.00
2023-01-07T18:56:42.436Z,100236.00
2023-01-07T18:59:09.758Z,100226.00
2023-01-07T19:01:37.249Z,100228.00
2023-01-07T19:04:06.858Z,100235.00
2023-01-07T19:06:34.465Z,100233.00
2023-01-07T19:09:01.791Z,100241.00
2023-01-07T19:11:29.116Z,100254.00
2023-01-07T19:13:56.464Z,100252.00
2023-01-07T19:16:23.995Z,100240.00
2023-01-07T19:18:53.377Z,100241.00
2023-01-07T19:21:21.656Z,100245.00
2023-01-07T19:23:49.286Z,100223.00
2023-01-07T19:26:16.625Z,100234.00
2023-01-07T19:28:44.052Z,100237.00
2023-01-07T19:31:11.853Z,100227.00
2023-01-07T19:33:39.813Z,100231.00
2023-01-07T19:36:11.959Z,100215.00
2023-01-07T19:38:46.813Z,100223.00
2023-01-07T19:41:19.324Z,100217.00
2023-01-07T19:43:48.413Z,100216.00
2023-01-07T19:46:16.582Z,100220.00
2023-01-07T19:48:46.772Z,100217.00
2023-01-07T19:51:14.058Z,100228.00
2023-01-07T19:53:41.750Z,100223.00
2023-01-07T19:56:13.127Z,100226.00
2023-01-07T19:58:42.147Z,100221.00
2023-01-07T20:01:17.983Z,100219.00
2023-01-07T20:03:45.832Z,100215.00
2023-01-07T20:06:19.938Z,100220.00
2023-01-07T20:08:47.651Z,100208.00
2023-01-07T20:11:15.876Z,100208.00
2023-01-07T20:13:46.914Z,100203.00
2023-01-07T20:16:24.291Z,100212.00
2023-01-07T20:18:54.634Z,100217.00
2023-01-07T20:21:28.357Z,100213.00
2023-01-07T20:23:55.843Z,100220.00
2023-01-07T20:26:30.521Z,100205.00
2023-01-07T20:28:59.522Z,100215.00
2023-01-07T20:31:29.959Z,100209.00
2023-01-07T20:33:57.808Z,100218.00
2023-01-07T20:36:32.646Z,100214.00
2023-01-07T20:39:05.844Z,100202.00
2023-01-07T20:41:35.373Z,100205.00
2023-01-07T20:44:05.863Z,100209.00
2023-01-07T20:46:36.187Z,100208.00
2023-01-07T20:49:03.689Z,100204.00
2023-01-07T20:51:31.984Z,100210.00
2023-01-07T20:53:59.550Z,100204.00
2023-01-07T20:56:32.422Z,100196.00
2023-01-07T20:59:01.981Z,100187.00
2023-01-07T21:01:30.005Z,100189.00
2023-01-07T21:03:57.704Z,100186.00
2023-01-07T21:06:25.225Z,100188.00
2023-01-07T21:08:52.564Z,100182.00
2023-01-07T21:11:23.676Z,100191.00
2023-01-07T21:13:51.918Z,100198.00
2023-01-07T21:16:20.021Z,100208.00
2023-01-07T21:18:47.486Z,100193.00
2023-01-07T21:21:19.411Z,100187.00
2023-01-07T21:23:47.939Z,100195.00
2023-01-07T21:26:16.392Z,100186.00
2023-01-07T21:28:44.344Z,100188.00
2023-01-07T21:31:15.530Z,100180.00
2023-01-07T21:33:43.321Z,100185.00
2023-01-07T21:36:19.673Z,100187.00
2023-01-07T21:38:53.327Z,100176.00
2023-01-07T21:41:21.700Z,100180.00
2023-01-07T21:43:49.264Z,100174.00
2023-01-07T21:46:17.716Z,100174.00
2023-01-07T21:48:46.955Z,100180.00
2023-01-07T21:51:27.401Z,100179.00
2023-01-07T21:53:56.821Z,100172.00
2023-01-07T21:56:27.307Z,100158.00
2023-01-07T21:58:54.735Z,100152.00
2023-01-07T22:01:23.062Z,100155.00
2023-01-07T22:03:50.396Z,100159.00
2023-01-07T22:06:25.649Z,100161.00
2023-01-07T22:09:03.587Z,100154.00
2023-01-07T22:11:31.850Z,100159.00
2023-01-07T22:14:01.741Z,100165.00
2023-01-07T22:16:32.527Z,100161.00
2023-01-07T22:19:01.503Z,100173.00
2023-01-07T22:21:29.476Z,100147.00
2023-01-07T22:23:56.847Z,100163.00
2023-01-07T22:26:24.327Z,100159.00
2023-01-07T22:28:58.124Z,100155.00
2023-01-07T22:31:33.254Z,100159.00
2023-01-07T22:34:00.476Z,100153.00
2023-01-07T22:36:42.365Z,100156.00
2023-01-07T22:39:32.984Z,100167.00
2023-01-07T22:42:09.284Z,100157.00
2023-01-07T22:44:45.919Z,100145.00
2023-01-07T22:47:19.448Z,100156.00
2023-01-07T22:49:48.601Z,100149.00
2023-01-07T22:52:16.001Z,100151.00
2023-01-07T22:54:43.822Z,100155.00
2023-01-07T22:57:13.000Z,100130.00
2023-01-07T22:59:40.572Z,100128.00
2023-01-07T23:02:07.841Z,100131.00
2023-01-07T23:04:35.124Z,100137.00
2023-01-07T23:07:02.536Z,100145.00
2023-01-07T23:09:32.603Z,100131.00
2023-01-07T23:12:01.028Z,100135.00
2023-01-07T23:14:30.672Z,100140.00
2023-01-07T23:16:59.688Z,100136.00
2023-01-07T23:19:26.853Z,100146.00
2023-01-07T23:21:55.288Z,100134.00
2023-01-07T23:24:24.094Z,100126.00
2023-01-07T23:26:53.883Z,100135.00
2023-01-07T23:29:22.060Z,100128.00
2023-01-07T23:31:50.305Z,100129.00
2023-01-07T23:34:17.808Z,100121.00
2023-01-07T23:36:45.193Z,100118.00
2023-01-07T23:39:13.054Z,100121.00
2023-01-07T23:41:41.759Z,100117.00
2023-01-07T23:44:08.997Z,100109.00
2023-01-07T23:46:36.143Z,100114.00
2023-01-07T23:49:03.455Z,100125.00
2023-01-07T23:51:30.597Z,100110.00
2023-01-07T23:53:57.850Z,100116.00
2023-01-07T23:56:25.189Z,100109.00
2023-01-07T23:58:52.424Z,100110.00
